Terminal Aerodrome Forecast
Issued by NWS

Home | Current Version | Previous Version | Text Only | Print | Product List | Glossary On
Versions: 1 2 3 4 5 6 7 8 9 10 11 12 13 14 15 16 17 18 19 20 21 22 23 24 25 26 27 28 29 30
000
FTAK31 PANC 180130 AAA
TAFAAQ
TAF AMD
PAAQ 180130Z 1802/1824 14012KT P6SM VCSH OVC060
      TEMPO 1802/1805 14012G22KT
     FM180500 09008KT P6SM -RA SCT030 OVC060
     FM182200 13008KT P6SM BKN070=

USA.gov is the U.S. government's official web portal to all federal, state and local government web resources and services.